Map

Track Data

SID SEASON NUMBER BASIN SUBBASIN NAME ISO_TIME NATURE LAT LON WMO_WIND WMO_PRES WMO_AGENCY TRACK_TYPE DIST2LAND LANDFALL IFLAG USA_AGENCY USA_ATCF_ID USA_LAT USA_LON USA_RECORD USA_STATUS USA_WIND USA_PRES USA_SSHS USA_R34_NE USA_R34_SE USA_R34_SW USA_R34_NW USA_R50_NE USA_R50_SE USA_R50_SW USA_R50_NW USA_R64_NE USA_R64_SE USA_R64_SW USA_R64_NW USA_POCI USA_ROCI USA_RMW USA_EYE TOKYO_LAT TOKYO_LON TOKYO_GRADE TOKYO_WIND TOKYO_PRES TOKYO_R50_DIR TOKYO_R50_LONG TOKYO_R50_SHORT TOKYO_R30_DIR TOKYO_R30_LONG TOKYO_R30_SHORT TOKYO_LAND CMA_LAT CMA_LON CMA_CAT CMA_WIND CMA_PRES HKO_LAT HKO_LON HKO_CAT HKO_WIND HKO_PRES NEWDELHI_LAT NEWDELHI_LON NEWDELHI_GRADE NEWDELHI_WIND NEWDELHI_PRES NEWDELHI_CI NEWDELHI_DP NEWDELHI_POCI REUNION_LAT REUNION_LON REUNION_TYPE REUNION_WIND REUNION_PRES REUNION_TNUM REUNION_CI REUNION_RMW REUNION_R34_NE REUNION_R34_SE REUNION_R34_SW REUNION_R34_NW REUNION_R50_NE REUNION_R50_SE REUNION_R50_SW REUNION_R50_NW REUNION_R64_NE REUNION_R64_SE REUNION_R64_SW REUNION_R64_NW BOM_LAT BOM_LON BOM_TYPE BOM_WIND BOM_PRES BOM_TNUM BOM_CI BOM_RMW BOM_R34_NE BOM_R34_SE BOM_R34_SW BOM_R34_NW BOM_R50_NE BOM_R50_SE BOM_R50_SW BOM_R50_NW BOM_R64_NE BOM_R64_SE BOM_R64_SW BOM_R64_NW BOM_ROCI BOM_POCI BOM_EYE BOM_POS_METHOD BOM_PRES_METHOD NADI_LAT NADI_LON NADI_CAT NADI_WIND NADI_PRES WELLINGTON_LAT WELLINGTON_LON WELLINGTON_WIND WELLINGTON_PRES DS824_LAT DS824_LON DS824_STAGE DS824_WIND DS824_PRES TD9636_LAT TD9636_LON TD9636_STAGE TD9636_WIND TD9636_PRES TD9635_LAT TD9635_LON TD9635_WIND TD9635_PRES TD9635_ROCI NEUMANN_LAT NEUMANN_LON NEUMANN_CLASS NEUMANN_WIND NEUMANN_PRES MLC_LAT MLC_LON MLC_CLASS MLC_WIND MLC_PRES USA_GUST BOM_GUST BOM_GUST_PER REUNION_GUST REUNION_GUST_PER USA_SEAHGT USA_SEARAD_NE USA_SEARAD_SE USA_SEARAD_SW USA_SEARAD_NW STORM_SPEED STORM_DIR
1936309N09088 1936 63 NI BB NOT_NAMED 1936-11-04 00:00:00 TS 8.70000 88.2000 main 715 706 _________O____ -1 8.70000 88.2000 TC 30 6 335
1936309N09088 1936 63 NI BB NOT_NAMED 1936-11-04 03:00:00 TS 8.97002 88.0717 main 711 695 _________PO___ -1 9.10502 88.0076 TC 30 8.70000 88.2000 1 7 334
1936309N09088 1936 63 NI BB NOT_NAMED 1936-11-04 06:00:00 TS 9.34063 87.8813 main 697 686 _________OP___ -1 9.50000 87.8000 TC 30 9.10157 88.0033 1 8 331
1936309N09088 1936 63 NI BB NOT_NAMED 1936-11-04 09:00:00 TS 9.70962 87.6636 main 690 671 _________PP___ -1 9.87248 87.5650 TC 30 9.49248 87.7952 1 8 327
1936309N09088 1936 63 NI BB NOT_NAMED 1936-11-04 12:00:00 TS 10.0311 87.4322 main 671 666 _________OP___ -1 10.2000 87.3000 TC 30 9.86216 87.5644 1 8 321
1936309N09088 1936 63 NI BB NOT_NAMED 1936-11-04 15:00:00 TS 10.3362 87.1575 main 666 645 _________PO___ -1 10.4725 87.0149 TC 30 10.2000 87.3000 1 8 315
1936309N09088 1936 63 NI BB NOT_NAMED 1936-11-04 18:00:00 TS 10.5983 86.8478 main 641 620 _________OP___ -1 10.7000 86.7000 TC 30 10.4966 86.9957 1 8 308
1936309N09088 1936 63 NI BB NOT_NAMED 1936-11-04 21:00:00 TS 10.8388 86.5076 main 620 601 _________PP___ -1 10.9300 86.3500 TC 30 10.7476 86.6651 1 8 302
1936309N09088 1936 63 NI BB NOT_NAMED 1936-11-05 00:00:00 TS 11.0249 86.1635 main 601 578 _________OP___ -1 11.1000 86.0000 TC 30 10.9497 86.3270 1 7 294
1936309N09088 1936 63 NI BB NOT_NAMED 1936-11-05 03:00:00 TS 11.1362 85.8425 main 569 557 _________PO___ -1 11.1725 85.6849 TC 30 11.1000 86.0000 1 6 286
1936309N09088 1936 63 NI BB NOT_NAMED 1936-11-05 06:00:00 TS 11.1940 85.5531 main 557 529 _________OP___ -1 11.2000 85.4000 TC 30 11.1880 85.7062 1 6 280
1936309N09088 1936 63 NI BB NOT_NAMED 1936-11-05 09:00:00 TS 11.2362 85.2847 main 529 508 _________PP___ -1 11.2425 85.1425 TC 30 11.2298 85.4270 1 5 279
1936309N09088 1936 63 NI BB NOT_NAMED 1936-11-05 12:00:00 TS 11.2784 85.0297 main 508 490 _________OP___ -1 11.3000 84.9000 TC 30 11.2568 85.1594 1 5 282
1936309N09088 1936 63 NI BB NOT_NAMED 1936-11-05 15:00:00 TS 11.3425 84.7750 main 490 477 _________PO___ -1 11.3850 84.6500 TC 30 11.3000 84.9000 1 5 290
1936309N09088 1936 63 NI BB NOT_NAMED 1936-11-05 18:00:00 TS 11.4515 84.5437 main 474 457 _________OP___ -1 11.5000 84.4000 TC 30 11.4030 84.6873 1 5 299
1936309N09088 1936 63 NI BB NOT_NAMED 1936-11-05 21:00:00 TS 11.5846 84.3311 main 457 433 _________PP___ -1 11.6423 84.1874 TC 30 11.5268 84.4747 1 5 301
1936309N09088 1936 63 NI BB NOT_NAMED 1936-11-06 00:00:00 TS 11.7311 84.0624 main 433 386 _________OP___ -1 11.8000 83.9000 TC 30 11.6622 84.2248 1 7 295
1936309N09088 1936 63 NI BB NOT_NAMED 1936-11-06 03:00:00 TS 11.8788 83.6725 main 386 330 _________PO___ -1 11.9575 83.4450 TC 30 11.8000 83.9000 1 9 287
1936309N09088 1936 63 NI BB NOT_NAMED 1936-11-06 06:00:00 TS 12.0005 83.1768 main 330 275 _________OP___ -1 12.1000 82.9000 TC 30 11.9009 83.4537 1 10 282
1936309N09088 1936 63 NI BB NOT_NAMED 1936-11-06 09:00:00 TS 12.0952 82.6446 main 264 209 _________PP___ -1 12.1849 82.3573 TC 30 12.0054 82.9319 1 11 281
1936309N09088 1936 63 NI BB NOT_NAMED 1936-11-06 12:00:00 TS 12.2160 82.0846 main 209 152 _________OP___ -1 12.3000 81.8000 TC 30 12.1321 82.3691 1 11 286
1936309N09088 1936 63 NI BB NOT_NAMED 1936-11-06 15:00:00 TS 12.4100 81.5213 main 141 86 _________PO___ -1 12.5199 81.2425 TC 30 12.3000 81.8000 1 11 292
1936309N09088 1936 63 NI BB NOT_NAMED 1936-11-06 18:00:00 TS 12.6415 81.0153 main 86 32 _________OP___ -1 12.8000 80.7000 TC 30 12.5226 81.2518 1 11 297
1936309N09088 1936 63 NI BB NOT_NAMED 1936-11-06 21:00:00 TS 12.9133 80.5104 main 32 0 _________PP___ -1 13.0976 80.1902 TC 30 12.7903 80.7239 1 11 300
1936309N09088 1936 63 NI BB NOT_NAMED 1936-11-07 00:00:00 TS 13.1920 80.0394 main 0 0 _________OP___ -1 13.4000 79.7000 TC 30 13.0880 80.2090 1 9 302
1936309N09088 1936 63 NI BB NOT_NAMED 1936-11-07 03:00:00 NR 13.4000 79.7000 main 0 __________O___ -1 TC 13.4000 79.7000 1 8 302

About IBTrACS Database

This database is a web-friendly format of International Best Track Archive for Climate Stewardship (IBTrACS), a global best track data archive curated by NOAA dating back to 1842.

Updated: 2021-11-26